sensor_id;sensor_type;location;lat;lon;timestamp;temperature;humidity
78522;SHT31;67819;51.972;5.678;2023-06-01T00:01:00;13.4;68.1
78522;SHT31;67819;51.972;5.678;2023-06-01T00:03:31;13.3;68.0
78522;SHT31;67819;51.972;5.678;2023-06-01T00:05:59;13.3;67.7
78522;SHT31;67819;51.972;5.678;2023-06-01T00:08:28;13.3;67.7
78522;SHT31;67819;51.972;5.678;2023-06-01T00:10:57;13.2;67.6
78522;SHT31;67819;51.972;5.678;2023-06-01T00:13:25;13.2;67.8
78522;SHT31;67819;51.972;5.678;2023-06-01T00:15:54;13.1;67.6
78522;SHT31;67819;51.972;5.678;2023-06-01T00:18:23;13.1;67.9
78522;SHT31;67819;51.972;5.678;2023-06-01T00:20:52;13.1;67.9
78522;SHT31;67819;51.972;5.678;2023-06-01T00:23:21;13.0;68.1
78522;SHT31;67819;51.972;5.678;2023-06-01T00:25:50;13.0;68.1
78522;SHT31;67819;51.972;5.678;2023-06-01T00:28:18;12.9;68.3
78522;SHT31;67819;51.972;5.678;2023-06-01T00:30:47;12.9;68.4
78522;SHT31;67819;51.972;5.678;2023-06-01T00:33:15;12.9;68.2
78522;SHT31;67819;51.972;5.678;2023-06-01T00:35:44;12.8;68.3
78522;SHT31;67819;51.972;5.678;2023-06-01T00:38:13;12.8;68.4
78522;SHT31;67819;51.972;5.678;2023-06-01T00:40:42;12.8;68.7
78522;SHT31;67819;51.972;5.678;2023-06-01T00:43:11;12.7;69.0
78522;SHT31;67819;51.972;5.678;2023-06-01T00:45:40;12.7;68.9
78522;SHT31;67819;51.972;5.678;2023-06-01T00:48:09;12.7;69.3
78522;SHT31;67819;51.972;5.678;2023-06-01T00:50:38;12.7;69.1
78522;SHT31;67819;51.972;5.678;2023-06-01T00:53:12;12.7;69.3
78522;SHT31;67819;51.972;5.678;2023-06-01T00:55:43;12.7;69.4
78522;SHT31;67819;51.972;5.678;2023-06-01T00:58:12;12.7;69.4
78522;SHT31;67819;51.972;5.678;2023-06-01T01:00:43;12.7;69.3
78522;SHT31;67819;51.972;5.678;2023-06-01T01:03:14;12.7;69.6
78522;SHT31;67819;51.972;5.678;2023-06-01T01:05:44;12.7;69.6
78522;SHT31;67819;51.972;5.678;2023-06-01T01:08:21;12.7;69.3
78522;SHT31;67819;51.972;5.678;2023-06-01T01:10:57;12.7;69.1
78522;SHT31;67819;51.972;5.678;2023-06-01T01:13:34;12.8;69.1
78522;SHT31;67819;51.972;5.678;2023-06-01T01:16:09;12.8;69.0
78522;SHT31;67819;51.972;5.678;2023-06-01T01:18:43;12.8;68.6
78522;SHT31;67819;51.972;5.678;2023-06-01T01:21:21;12.8;68.4
78522;SHT31;67819;51.972;5.678;2023-06-01T01:24:11;12.7;68.6
78522;SHT31;67819;51.972;5.678;2023-06-01T01:26:55;12.7;68.6
78522;SHT31;67819;51.972;5.678;2023-06-01T01:29:26;12.7;68.7
78522;SHT31;67819;51.972;5.678;2023-06-01T01:32:00;12.6;68.7
78522;SHT31;67819;51.972;5.678;2023-06-01T01:34:31;12.6;69.2
78522;SHT31;67819;51.972;5.678;2023-06-01T01:37:02;12.6;69.1
78522;SHT31;67819;51.972;5.678;2023-06-01T01:39:31;12.5;69.4
78522;SHT31;67819;51.972;5.678;2023-06-01T01:42:00;12.5;69.6
78522;SHT31;67819;51.972;5.678;2023-06-01T01:44:31;12.5;69.6
78522;SHT31;67819;51.972;5.678;2023-06-01T01:47:08;12.5;69.7
78522;SHT31;67819;51.972;5.678;2023-06-01T01:49:43;12.5;69.5
78522;SHT31;67819;51.972;5.678;2023-06-01T01:52:16;12.6;69.3
78522;SHT31;67819;51.972;5.678;2023-06-01T01:54:49;12.6;69.3
78522;SHT31;67819;51.972;5.678;2023-06-01T01:57:18;12.6;69.2
78522;SHT31;67819;51.972;5.678;2023-06-01T01:59:48;12.6;69.1
78522;SHT31;67819;51.972;5.678;2023-06-01T02:02:17;12.6;69.2
78522;SHT31;67819;51.972;5.678;2023-06-01T02:04:46;12.6;69.2
78522;SHT31;67819;51.972;5.678;2023-06-01T02:07:14;12.6;69.6
78522;SHT31;67819;51.972;5.678;2023-06-01T02:09:43;12.6;69.1
78522;SHT31;67819;51.972;5.678;2023-06-01T02:12:12;12.6;69.1
78522;SHT31;67819;51.972;5.678;2023-06-01T02:14:41;12.6;69.1
78522;SHT31;67819;51.972;5.678;2023-06-01T02:17:09;12.7;68.9
78522;SHT31;67819;51.972;5.678;2023-06-01T02:19:41;12.7;69.0
78522;SHT31;67819;51.972;5.678;2023-06-01T02:22:10;12.7;68.8
78522;SHT31;67819;51.972;5.678;2023-06-01T02:24:39;12.7;68.5
78522;SHT31;67819;51.972;5.678;2023-06-01T02:27:10;12.7;68.3
78522;SHT31;67819;51.972;5.678;2023-06-01T02:29:39;12.7;68.2
78522;SHT31;67819;51.972;5.678;2023-06-01T02:32:08;12.7;68.4
78522;SHT31;67819;51.972;5.678;2023-06-01T02:34:37;12.7;68.3
78522;SHT31;67819;51.972;5.678;2023-06-01T02:37:06;12.6;68.5
78522;SHT31;67819;51.972;5.678;2023-06-01T02:39:34;12.6;68.7
78522;SHT31;67819;51.972;5.678;2023-06-01T02:42:03;12.6;68.7
78522;SHT31;67819;51.972;5.678;2023-06-01T02:44:32;12.6;68.6
78522;SHT31;67819;51.972;5.678;2023-06-01T02:47:01;12.6;68.8
78522;SHT31;67819;51.972;5.678;2023-06-01T02:49:29;12.6;69.0
78522;SHT31;67819;51.972;5.678;2023-06-01T02:51:58;12.6;68.8
78522;SHT31;67819;51.972;5.678;2023-06-01T02:54:28;12.6;68.7
78522;SHT31;67819;51.972;5.678;2023-06-01T02:56:57;12.6;68.8
78522;SHT31;67819;51.972;5.678;2023-06-01T02:59:25;12.6;68.8
78522;SHT31;67819;51.972;5.678;2023-06-01T03:01:56;12.7;68.6
78522;SHT31;67819;51.972;5.678;2023-06-01T03:04:25;12.7;68.4
78522;SHT31;67819;51.972;5.678;2023-06-01T03:06:55;12.7;68.6
78522;SHT31;67819;51.972;5.678;2023-06-01T03:09:25;12.7;68.5
78522;SHT31;67819;51.972;5.678;2023-06-01T03:11:54;12.7;68.6
78522;SHT31;67819;51.972;5.678;2023-06-01T03:14:22;12.7;68.5
78522;SHT31;67819;51.972;5.678;2023-06-01T03:16:51;12.7;68.5
78522;SHT31;67819;51.972;5.678;2023-06-01T03:19:19;12.8;68.3
78522;SHT31;67819;51.972;5.678;2023-06-01T03:21:48;12.8;68.0
78522;SHT31;67819;51.972;5.678;2023-06-01T03:24:17;12.8;68.2
78522;SHT31;67819;51.972;5.678;2023-06-01T03:26:45;12.8;68.0
78522;SHT31;67819;51.972;5.678;2023-06-01T03:29:15;12.8;67.7
78522;SHT31;67819;51.972;5.678;2023-06-01T03:31:43;12.8;67.8
78522;SHT31;67819;51.972;5.678;2023-06-01T03:34:12;12.8;67.5
78522;SHT31;67819;51.972;5.678;2023-06-01T03:36:41;12.8;67.8
78522;SHT31;67819;51.972;5.678;2023-06-01T03:39:14;12.8;67.6
78522;SHT31;67819;51.972;5.678;2023-06-01T03:41:43;12.9;67.2
78522;SHT31;67819;51.972;5.678;2023-06-01T03:44:12;12.9;67.2
78522;SHT31;67819;51.972;5.678;2023-06-01T03:46:41;12.8;66.8
78522;SHT31;67819;51.972;5.678;2023-06-01T03:49:09;12.8;66.6
78522;SHT31;67819;51.972;5.678;2023-06-01T03:51:38;12.8;66.4
78522;SHT31;67819;51.972;5.678;2023-06-01T03:54:06;12.8;66.2
78522;SHT31;67819;51.972;5.678;2023-06-01T03:56:35;12.7;66.6
78522;SHT31;67819;51.972;5.678;2023-06-01T03:59:04;12.7;66.8
78522;SHT31;67819;51.972;5.678;2023-06-01T04:01:33;12.6;67.1
78522;SHT31;67819;51.972;5.678;2023-06-01T04:04:04;12.6;67.1
78522;SHT31;67819;51.972;5.678;2023-06-01T04:06:35;12.6;67.3
78522;SHT31;67819;51.972;5.678;2023-06-01T04:09:04;12.5;67.3
78522;SHT31;67819;51.972;5.678;2023-06-01T04:11:35;12.5;67.4
78522;SHT31;67819;51.972;5.678;2023-06-01T04:14:06;12.5;67.3
78522;SHT31;67819;51.972;5.678;2023-06-01T04:16:34;12.5;67.4
78522;SHT31;67819;51.972;5.678;2023-06-01T04:19:03;12.5;67.5
78522;SHT31;67819;51.972;5.678;2023-06-01T04:21:32;12.5;67.3
78522;SHT31;67819;51.972;5.678;2023-06-01T04:24:00;12.5;67.6
78522;SHT31;67819;51.972;5.678;2023-06-01T04:26:29;12.5;67.7
78522;SHT31;67819;51.972;5.678;2023-06-01T04:28:58;12.5;67.7
78522;SHT31;67819;51.972;5.678;2023-06-01T04:31:27;12.5;67.9
78522;SHT31;67819;51.972;5.678;2023-06-01T04:33:59;12.5;68.0
78522;SHT31;67819;51.972;5.678;2023-06-01T04:36:27;12.5;67.7
78522;SHT31;67819;51.972;5.678;2023-06-01T04:38:56;12.5;67.5
78522;SHT31;67819;51.972;5.678;2023-06-01T04:41:27;12.6;67.6
78522;SHT31;67819;51.972;5.678;2023-06-01T04:43:57;12.6;67.3
78522;SHT31;67819;51.972;5.678;2023-06-01T04:46:26;12.6;67.1
78522;SHT31;67819;51.972;5.678;2023-06-01T04:48:55;12.6;67.1
78522;SHT31;67819;51.972;5.678;2023-06-01T04:51:27;12.6;67.2
78522;SHT31;67819;51.972;5.678;2023-06-01T04:53:57;12.6;67.7
78522;SHT31;67819;51.972;5.678;2023-06-01T04:56:25;12.6;67.1
78522;SHT31;67819;51.972;5.678;2023-06-01T04:58:56;12.7;67.7
78522;SHT31;67819;51.972;5.678;2023-06-01T05:01:25;12.7;66.7
78522;SHT31;67819;51.972;5.678;2023-06-01T05:03:55;12.7;66.5
78522;SHT31;67819;51.972;5.678;2023-06-01T05:06:24;12.7;66.5
78522;SHT31;67819;51.972;5.678;2023-06-01T05:08:55;12.8;66.2
78522;SHT31;67819;51.972;5.678;2023-06-01T05:11:24;12.8;66.5
78522;SHT31;67819;51.972;5.678;2023-06-01T05:13:53;12.8;66.2
78522;SHT31;67819;51.972;5.678;2023-06-01T05:16:27;12.8;66.2
78522;SHT31;67819;51.972;5.678;2023-06-01T05:18:55;12.8;66.1
78522;SHT31;67819;51.972;5.678;2023-06-01T05:21:24;12.8;66.5
78522;SHT31;67819;51.972;5.678;2023-06-01T05:23:53;12.8;66.7
78522;SHT31;67819;51.972;5.678;2023-06-01T05:26:21;12.9;66.4
78522;SHT31;67819;51.972;5.678;2023-06-01T05:28:50;12.9;65.9
78522;SHT31;67819;51.972;5.678;2023-06-01T05:31:19;12.9;65.7
78522;SHT31;67819;51.972;5.678;2023-06-01T05:33:48;13.0;65.5
78522;SHT31;67819;51.972;5.678;2023-06-01T05:36:17;13.0;65.8
78522;SHT31;67819;51.972;5.678;2023-06-01T05:38:48;13.0;65.7
78522;SHT31;67819;51.972;5.678;2023-06-01T05:41:16;13.0;65.5
78522;SHT31;67819;51.972;5.678;2023-06-01T05:43:45;13.0;65.5
78522;SHT31;67819;51.972;5.678;2023-06-01T05:46:13;13.0;65.4
78522;SHT31;67819;51.972;5.678;2023-06-01T05:48:42;13.0;65.6
78522;SHT31;67819;51.972;5.678;2023-06-01T05:51:10;13.0;65.3
78522;SHT31;67819;51.972;5.678;2023-06-01T05:53:40;13.0;65.3
78522;SHT31;67819;51.972;5.678;2023-06-01T05:56:11;13.0;65.3
78522;SHT31;67819;51.972;5.678;2023-06-01T05:58:39;13.0;65.7
78522;SHT31;67819;51.972;5.678;2023-06-01T06:01:08;13.0;65.3
78522;SHT31;67819;51.972;5.678;2023-06-01T06:03:37;13.0;65.2
78522;SHT31;67819;51.972;5.678;2023-06-01T06:06:06;13.0;65.4
78522;SHT31;67819;51.972;5.678;2023-06-01T06:08:35;13.0;65.6
78522;SHT31;67819;51.972;5.678;2023-06-01T06:11:04;13.1;65.6
78522;SHT31;67819;51.972;5.678;2023-06-01T06:13:32;13.1;65.0
78522;SHT31;67819;51.972;5.678;2023-06-01T06:16:01;13.2;65.2
78522;SHT31;67819;51.972;5.678;2023-06-01T06:18:30;13.2;65.2
78522;SHT31;67819;51.972;5.678;2023-06-01T06:20:58;13.3;65.4
78522;SHT31;67819;51.972;5.678;2023-06-01T06:23:27;13.4;65.0
78522;SHT31;67819;51.972;5.678;2023-06-01T06:25:56;13.4;64.8
78522;SHT31;67819;51.972;5.678;2023-06-01T06:28:25;13.5;64.6
78522;SHT31;67819;51.972;5.678;2023-06-01T06:30:54;13.6;64.4
78522;SHT31;67819;51.972;5.678;2023-06-01T06:33:23;13.7;63.8
78522;SHT31;67819;51.972;5.678;2023-06-01T06:35:52;13.8;63.1
78522;SHT31;67819;51.972;5.678;2023-06-01T06:38:20;13.9;63.2
78522;SHT31;67819;51.972;5.678;2023-06-01T06:40:49;13.9;63.4
78522;SHT31;67819;51.972;5.678;2023-06-01T06:43:19;14.0;62.7
78522;SHT31;67819;51.972;5.678;2023-06-01T06:45:47;14.1;63.5
78522;SHT31;67819;51.972;5.678;2023-06-01T06:48:16;14.2;62.8
78522;SHT31;67819;51.972;5.678;2023-06-01T06:50:44;14.3;61.9
78522;SHT31;67819;51.972;5.678;2023-06-01T06:53:13;14.5;62.7
78522;SHT31;67819;51.972;5.678;2023-06-01T06:55:42;14.6;62.0
78522;SHT31;67819;51.972;5.678;2023-06-01T06:58:11;14.8;62.0
78522;SHT31;67819;51.972;5.678;2023-06-01T07:00:40;15.0;59.8
78522;SHT31;67819;51.972;5.678;2023-06-01T07:03:12;15.2;58.7
78522;SHT31;67819;51.972;5.678;2023-06-01T07:05:41;15.2;58.5
78522;SHT31;67819;51.972;5.678;2023-06-01T07:08:11;15.2;57.5
78522;SHT31;67819;51.972;5.678;2023-06-01T07:10:40;15.2;58.1
78522;SHT31;67819;51.972;5.678;2023-06-01T07:13:08;15.1;58.3
78522;SHT31;67819;51.972;5.678;2023-06-01T07:15:37;15.1;58.9
78522;SHT31;67819;51.972;5.678;2023-06-01T07:18:06;15.1;58.9
78522;SHT31;67819;51.972;5.678;2023-06-01T07:20:35;15.1;58.7
78522;SHT31;67819;51.972;5.678;2023-06-01T07:23:03;15.1;58.4
78522;SHT31;67819;51.972;5.678;2023-06-01T07:25:32;15.2;59.7
78522;SHT31;67819;51.972;5.678;2023-06-01T07:28:01;15.3;59.1
78522;SHT31;67819;51.972;5.678;2023-06-01T07:30:33;15.5;57.7
78522;SHT31;67819;51.972;5.678;2023-06-01T07:33:02;15.5;56.4
78522;SHT31;67819;51.972;5.678;2023-06-01T07:35:31;15.6;56.8
78522;SHT31;67819;51.972;5.678;2023-06-01T07:38:00;15.6;56.2
78522;SHT31;67819;51.972;5.678;2023-06-01T07:40:30;15.5;56.3
78522;SHT31;67819;51.972;5.678;2023-06-01T07:42:59;15.5;56.3
78522;SHT31;67819;51.972;5.678;2023-06-01T07:45:28;15.4;56.7
78522;SHT31;67819;51.972;5.678;2023-06-01T07:47:57;15.4;57.2
78522;SHT31;67819;51.972;5.678;2023-06-01T07:50:27;15.3;57.3
78522;SHT31;67819;51.972;5.678;2023-06-01T07:52:57;15.3;58.0
78522;SHT31;67819;51.972;5.678;2023-06-01T07:55:28;15.3;57.4
78522;SHT31;67819;51.972;5.678;2023-06-01T07:57:58;15.3;56.9
78522;SHT31;67819;51.972;5.678;2023-06-01T08:00:29;15.4;57.6
78522;SHT31;67819;51.972;5.678;2023-06-01T08:02:58;15.4;57.2
78522;SHT31;67819;51.972;5.678;2023-06-01T08:05:31;15.4;56.5
78522;SHT31;67819;51.972;5.678;2023-06-01T08:08:00;15.5;56.5
78522;SHT31;67819;51.972;5.678;2023-06-01T08:10:29;15.5;56.8
78522;SHT31;67819;51.972;5.678;2023-06-01T08:12:58;15.5;57.9
78522;SHT31;67819;51.972;5.678;2023-06-01T08:15:26;15.6;57.5
78522;SHT31;67819;51.972;5.678;2023-06-01T08:17:56;15.6;58.0
78522;SHT31;67819;51.972;5.678;2023-06-01T08:20:27;15.7;58.0
78522;SHT31;67819;51.972;5.678;2023-06-01T08:22:58;15.7;56.7
78522;SHT31;67819;51.972;5.678;2023-06-01T08:25:27;15.8;56.8
78522;SHT31;67819;51.972;5.678;2023-06-01T08:27:55;15.8;57.8
78522;SHT31;67819;51.972;5.678;2023-06-01T08:30:25;15.8;56.6
78522;SHT31;67819;51.972;5.678;2023-06-01T08:32:54;15.8;55.7
78522;SHT31;67819;51.972;5.678;2023-06-01T08:35:22;15.9;56.5
78522;SHT31;67819;51.972;5.678;2023-06-01T08:37:53;15.9;56.5
78522;SHT31;67819;51.972;5.678;2023-06-01T08:40:24;15.9;55.9
78522;SHT31;67819;51.972;5.678;2023-06-01T08:42:57;15.9;56.9
78522;SHT31;67819;51.972;5.678;2023-06-01T08:45:28;15.9;54.9
78522;SHT31;67819;51.972;5.678;2023-06-01T08:47:58;16.0;54.8
78522;SHT31;67819;51.972;5.678;2023-06-01T08:50:27;16.1;55.6
78522;SHT31;67819;51.972;5.678;2023-06-01T08:52:59;16.1;55.5
78522;SHT31;67819;51.972;5.678;2023-06-01T08:55:29;16.2;55.4
78522;SHT31;67819;51.972;5.678;2023-06-01T08:57:58;16.3;55.3
78522;SHT31;67819;51.972;5.678;2023-06-01T09:00:29;16.4;55.8
78522;SHT31;67819;51.972;5.678;2023-06-01T09:02:59;16.5;54.6
78522;SHT31;67819;51.972;5.678;2023-06-01T09:05:28;16.6;54.3
78522;SHT31;67819;51.972;5.678;2023-06-01T09:07:57;16.7;54.3
78522;SHT31;67819;51.972;5.678;2023-06-01T09:10:26;16.7;53.9
78522;SHT31;67819;51.972;5.678;2023-06-01T09:12:55;16.8;53.4
78522;SHT31;67819;51.972;5.678;2023-06-01T09:15:23;16.8;53.0
78522;SHT31;67819;51.972;5.678;2023-06-01T09:18:06;16.8;53.1
78522;SHT31;67819;51.972;5.678;2023-06-01T09:20:36;16.8;52.9
78522;SHT31;67819;51.972;5.678;2023-06-01T09:23:05;16.9;52.9
78522;SHT31;67819;51.972;5.678;2023-06-01T09:25:34;16.9;52.5
78522;SHT31;67819;51.972;5.678;2023-06-01T09:28:02;16.9;52.8
78522;SHT31;67819;51.972;5.678;2023-06-01T09:30:40;17.0;52.6
78522;SHT31;67819;51.972;5.678;2023-06-01T09:33:14;17.0;52.5
78522;SHT31;67819;51.972;5.678;2023-06-01T09:35:47;17.0;52.5
78522;SHT31;67819;51.972;5.678;2023-06-01T09:38:24;17.0;53.3
78522;SHT31;67819;51.972;5.678;2023-06-01T09:41:00;17.1;52.5
78522;SHT31;67819;51.972;5.678;2023-06-01T09:43:30;17.1;53.1
78522;SHT31;67819;51.972;5.678;2023-06-01T09:46:08;17.2;52.4
78522;SHT31;67819;51.972;5.678;2023-06-01T09:48:40;17.2;52.9
78522;SHT31;67819;51.972;5.678;2023-06-01T09:51:23;17.3;52.6
78522;SHT31;67819;51.972;5.678;2023-06-01T09:53:55;17.4;51.5
78522;SHT31;67819;51.972;5.678;2023-06-01T09:56:24;17.5;52.5
78522;SHT31;67819;51.972;5.678;2023-06-01T09:58:58;17.6;52.4
78522;SHT31;67819;51.972;5.678;2023-06-01T10:01:29;17.7;51.3
78522;SHT31;67819;51.972;5.678;2023-06-01T10:04:00;17.8;50.7
78522;SHT31;67819;51.972;5.678;2023-06-01T10:06:31;17.9;50.2
78522;SHT31;67819;51.972;5.678;2023-06-01T10:09:04;17.9;50.4
78522;SHT31;67819;51.972;5.678;2023-06-01T10:11:34;17.9;50.3
78522;SHT31;67819;51.972;5.678;2023-06-01T10:14:05;18.0;50.3
78522;SHT31;67819;51.972;5.678;2023-06-01T10:16:34;18.0;50.5
78522;SHT31;67819;51.972;5.678;2023-06-01T10:19:03;18.0;50.5
78522;SHT31;67819;51.972;5.678;2023-06-01T10:21:33;18.1;49.2
78522;SHT31;67819;51.972;5.678;2023-06-01T10:24:03;18.1;49.3
78522;SHT31;67819;51.972;5.678;2023-06-01T10:26:36;18.2;47.9
78522;SHT31;67819;51.972;5.678;2023-06-01T10:29:07;18.2;48.8
78522;SHT31;67819;51.972;5.678;2023-06-01T10:31:38;18.2;47.9
78522;SHT31;67819;51.972;5.678;2023-06-01T10:34:09;18.2;48.9
78522;SHT31;67819;51.972;5.678;2023-06-01T10:37:17;18.3;49.0
78522;SHT31;67819;51.972;5.678;2023-06-01T10:39:48;18.3;49.8
78522;SHT31;67819;51.972;5.678;2023-06-01T10:42:39;18.4;48.8
78522;SHT31;67819;51.972;5.678;2023-06-01T10:45:37;18.5;49.6
78522;SHT31;67819;51.972;5.678;2023-06-01T10:48:08;18.5;48.9
78522;SHT31;67819;51.972;5.678;2023-06-01T10:50:39;18.5;49.2
78522;SHT31;67819;51.972;5.678;2023-06-01T10:53:28;18.6;48.7
78522;SHT31;67819;51.972;5.678;2023-06-01T10:56:22;18.6;48.2
78522;SHT31;67819;51.972;5.678;2023-06-01T10:59:11;18.6;48.6
78522;SHT31;67819;51.972;5.678;2023-06-01T11:01:42;18.6;48.3
78522;SHT31;67819;51.972;5.678;2023-06-01T11:04:12;18.7;48.0
78522;SHT31;67819;51.972;5.678;2023-06-01T11:06:42;18.7;48.3
78522;SHT31;67819;51.972;5.678;2023-06-01T11:09:12;18.8;48.1
78522;SHT31;67819;51.972;5.678;2023-06-01T11:12:17;18.8;48.1
78522;SHT31;67819;51.972;5.678;2023-06-01T11:15:09;18.8;48.0
78522;SHT31;67819;51.972;5.678;2023-06-01T11:17:41;18.9;47.4
78522;SHT31;67819;51.972;5.678;2023-06-01T11:20:10;19.0;46.6
78522;SHT31;67819;51.972;5.678;2023-06-01T11:22:40;19.0;46.7
78522;SHT31;67819;51.972;5.678;2023-06-01T11:25:12;19.0;47.2
78522;SHT31;67819;51.972;5.678;2023-06-01T11:27:47;19.1;47.5
78522;SHT31;67819;51.972;5.678;2023-06-01T11:30:20;19.1;47.7
78522;SHT31;67819;51.972;5.678;2023-06-01T11:32:51;19.2;48.5
78522;SHT31;67819;51.972;5.678;2023-06-01T11:35:22;19.3;47.7
78522;SHT31;67819;51.972;5.678;2023-06-01T11:37:56;19.4;46.4
78522;SHT31;67819;51.972;5.678;2023-06-01T11:40:25;19.5;45.7
78522;SHT31;67819;51.972;5.678;2023-06-01T11:42:56;19.5;45.8
78522;SHT31;67819;51.972;5.678;2023-06-01T11:45:25;19.6;45.9
78522;SHT31;67819;51.972;5.678;2023-06-01T11:47:54;19.6;47.1
78522;SHT31;67819;51.972;5.678;2023-06-01T11:50:24;19.6;48.0
78522;SHT31;67819;51.972;5.678;2023-06-01T11:52:54;19.7;47.3
78522;SHT31;67819;51.972;5.678;2023-06-01T11:55:24;19.8;47.1
78522;SHT31;67819;51.972;5.678;2023-06-01T11:57:54;19.9;46.8
78522;SHT31;67819;51.972;5.678;2023-06-01T12:00:23;19.9;46.8
78522;SHT31;67819;51.972;5.678;2023-06-01T12:03:07;20.0;46.2
78522;SHT31;67819;51.972;5.678;2023-06-01T12:05:40;20.0;46.2
78522;SHT31;67819;51.972;5.678;2023-06-01T12:08:15;20.0;46.9
78522;SHT31;67819;51.972;5.678;2023-06-01T12:10:46;20.0;46.7
78522;SHT31;67819;51.972;5.678;2023-06-01T12:13:15;20.0;47.1
78522;SHT31;67819;51.972;5.678;2023-06-01T12:15:45;20.1;45.9
78522;SHT31;67819;51.972;5.678;2023-06-01T12:18:13;20.1;46.8
78522;SHT31;67819;51.972;5.678;2023-06-01T12:20:42;20.2;46.8
78522;SHT31;67819;51.972;5.678;2023-06-01T12:23:16;20.3;46.1
78522;SHT31;67819;51.972;5.678;2023-06-01T12:25:53;20.4;46.3
78522;SHT31;67819;51.972;5.678;2023-06-01T12:28:23;20.5;46.1
78522;SHT31;67819;51.972;5.678;2023-06-01T12:31:09;20.5;46.5
78522;SHT31;67819;51.972;5.678;2023-06-01T12:33:41;20.6;47.4
78522;SHT31;67819;51.972;5.678;2023-06-01T12:36:27;20.6;46.3
78522;SHT31;67819;51.972;5.678;2023-06-01T12:38:51;20.6;45.4
78522;SHT31;67819;51.972;5.678;2023-06-01T12:41:20;20.7;44.5
78522;SHT31;67819;51.972;5.678;2023-06-01T12:43:51;20.7;46.3
78522;SHT31;67819;51.972;5.678;2023-06-01T12:46:21;20.7;45.7
78522;SHT31;67819;51.972;5.678;2023-06-01T12:48:51;20.8;45.3
78522;SHT31;67819;51.972;5.678;2023-06-01T12:51:21;20.8;45.2
78522;SHT31;67819;51.972;5.678;2023-06-01T12:53:50;20.9;46.3
78522;SHT31;67819;51.972;5.678;2023-06-01T12:56:20;20.9;45.3
78522;SHT31;67819;51.972;5.678;2023-06-01T12:58:49;21.0;45.4
78522;SHT31;67819;51.972;5.678;2023-06-01T13:01:18;21.1;44.9
78522;SHT31;67819;51.972;5.678;2023-06-01T13:03:46;21.1;45.2
78522;SHT31;67819;51.972;5.678;2023-06-01T13:06:16;21.1;45.6
78522;SHT31;67819;51.972;5.678;2023-06-01T13:08:45;21.1;45.4
78522;SHT31;67819;51.972;5.678;2023-06-01T13:11:14;21.2;45.8
78522;SHT31;67819;51.972;5.678;2023-06-01T13:13:43;21.2;45.8
78522;SHT31;67819;51.972;5.678;2023-06-01T13:16:11;21.3;45.7
78522;SHT31;67819;51.972;5.678;2023-06-01T13:18:41;21.3;46.1
78522;SHT31;67819;51.972;5.678;2023-06-01T13:21:10;21.4;46.2
78522;SHT31;67819;51.972;5.678;2023-06-01T13:23:39;21.4;46.4
78522;SHT31;67819;51.972;5.678;2023-06-01T13:26:08;21.5;46.1
78522;SHT31;67819;51.972;5.678;2023-06-01T13:28:37;21.5;45.8
78522;SHT31;67819;51.972;5.678;2023-06-01T13:31:06;21.5;45.9
78522;SHT31;67819;51.972;5.678;2023-06-01T13:33:35;21.5;46.0
78522;SHT31;67819;51.972;5.678;2023-06-01T13:36:05;21.5;45.8
78522;SHT31;67819;51.972;5.678;2023-06-01T13:38:34;21.5;45.6
78522;SHT31;67819;51.972;5.678;2023-06-01T13:41:02;21.6;45.1
78522;SHT31;67819;51.972;5.678;2023-06-01T13:43:33;21.6;45.0
78522;SHT31;67819;51.972;5.678;2023-06-01T13:46:04;21.5;45.1
78522;SHT31;67819;51.972;5.678;2023-06-01T13:48:34;21.5;44.7
78522;SHT31;67819;51.972;5.678;2023-06-01T13:51:02;21.5;45.8
78522;SHT31;67819;51.972;5.678;2023-06-01T13:53:31;21.4;45.3
78522;SHT31;67819;51.972;5.678;2023-06-01T13:56:00;21.4;44.8
78522;SHT31;67819;51.972;5.678;2023-06-01T13:58:29;21.3;44.7
78522;SHT31;67819;51.972;5.678;2023-06-01T14:01:00;21.2;45.0
78522;SHT31;67819;51.972;5.678;2023-06-01T14:03:29;21.2;45.1
78522;SHT31;67819;51.972;5.678;2023-06-01T14:05:57;21.2;46.1
78522;SHT31;67819;51.972;5.678;2023-06-01T14:08:26;21.2;45.3
78522;SHT31;67819;51.972;5.678;2023-06-01T14:10:55;21.2;45.3
78522;SHT31;67819;51.972;5.678;2023-06-01T14:13:23;21.2;45.8
78522;SHT31;67819;51.972;5.678;2023-06-01T14:15:52;21.2;44.5
78522;SHT31;67819;51.972;5.678;2023-06-01T14:18:20;21.1;45.0
78522;SHT31;67819;51.972;5.678;2023-06-01T14:20:49;21.0;44.3
78522;SHT31;67819;51.972;5.678;2023-06-01T14:23:18;20.8;45.2
78522;SHT31;67819;51.972;5.678;2023-06-01T14:25:47;20.6;45.4
78522;SHT31;67819;51.972;5.678;2023-06-01T14:28:16;20.4;46.0
78522;SHT31;67819;51.972;5.678;2023-06-01T14:30:44;20.1;46.6
78522;SHT31;67819;51.972;5.678;2023-06-01T14:33:13;19.8;47.8
78522;SHT31;67819;51.972;5.678;2023-06-01T14:35:42;19.7;48.7
78522;SHT31;67819;51.972;5.678;2023-06-01T14:38:10;19.6;48.7
78522;SHT31;67819;51.972;5.678;2023-06-01T14:40:39;19.5;48.7
78522;SHT31;67819;51.972;5.678;2023-06-01T14:43:08;19.4;48.4
78522;SHT31;67819;51.972;5.678;2023-06-01T14:45:36;19.2;48.8
78522;SHT31;67819;51.972;5.678;2023-06-01T14:48:05;19.1;49.7
78522;SHT31;67819;51.972;5.678;2023-06-01T14:50:34;18.9;50.3
78522;SHT31;67819;51.972;5.678;2023-06-01T14:53:02;18.8;50.6
78522;SHT31;67819;51.972;5.678;2023-06-01T14:55:31;18.7;51.3
78522;SHT31;67819;51.972;5.678;2023-06-01T14:57:59;18.6;51.2
78522;SHT31;67819;51.972;5.678;2023-06-01T15:00:29;18.5;51.3
78522;SHT31;67819;51.972;5.678;2023-06-01T15:02:57;18.5;51.3
78522;SHT31;67819;51.972;5.678;2023-06-01T15:05:26;18.4;51.6
78522;SHT31;67819;51.972;5.678;2023-06-01T15:07:55;18.4;52.0
78522;SHT31;67819;51.972;5.678;2023-06-01T15:10:26;18.3;51.9
78522;SHT31;67819;51.972;5.678;2023-06-01T15:12:54;18.3;52.6
78522;SHT31;67819;51.972;5.678;2023-06-01T15:15:23;18.2;53.1
78522;SHT31;67819;51.972;5.678;2023-06-01T15:17:53;18.2;53.0
78522;SHT31;67819;51.972;5.678;2023-06-01T15:20:22;18.2;52.4
78522;SHT31;67819;51.972;5.678;2023-06-01T15:22:50;18.3;53.1
78522;SHT31;67819;51.972;5.678;2023-06-01T15:25:19;18.3;52.0
78522;SHT31;67819;51.972;5.678;2023-06-01T15:27:47;18.3;52.1
78522;SHT31;67819;51.972;5.678;2023-06-01T15:30:17;18.2;52.2
78522;SHT31;67819;51.972;5.678;2023-06-01T15:32:46;18.2;51.7
78522;SHT31;67819;51.972;5.678;2023-06-01T15:35:14;18.2;51.9
78522;SHT31;67819;51.972;5.678;2023-06-01T15:37:43;18.2;52.1
78522;SHT31;67819;51.972;5.678;2023-06-01T15:40:14;18.2;52.4
78522;SHT31;67819;51.972;5.678;2023-06-01T15:42:43;18.2;52.1
78522;SHT31;67819;51.972;5.678;2023-06-01T15:45:11;18.2;52.2
78522;SHT31;67819;51.972;5.678;2023-06-01T15:47:40;18.3;52.5
78522;SHT31;67819;51.972;5.678;2023-06-01T15:50:09;18.3;52.3
78522;SHT31;67819;51.972;5.678;2023-06-01T15:52:38;18.2;51.3
78522;SHT31;67819;51.972;5.678;2023-06-01T15:55:07;18.2;52.2
78522;SHT31;67819;51.972;5.678;2023-06-01T15:57:36;18.1;52.6
78522;SHT31;67819;51.972;5.678;2023-06-01T16:00:05;18.1;52.1
78522;SHT31;67819;51.972;5.678;2023-06-01T16:02:34;18.1;51.2
78522;SHT31;67819;51.972;5.678;2023-06-01T16:05:05;18.0;51.2
78522;SHT31;67819;51.972;5.678;2023-06-01T16:07:34;17.9;51.5
78522;SHT31;67819;51.972;5.678;2023-06-01T16:10:03;17.8;52.0
78522;SHT31;67819;51.972;5.678;2023-06-01T16:12:33;17.7;52.2
78522;SHT31;67819;51.972;5.678;2023-06-01T16:15:02;17.7;52.9
78522;SHT31;67819;51.972;5.678;2023-06-01T16:17:32;17.7;52.6
78522;SHT31;67819;51.972;5.678;2023-06-01T16:20:02;17.6;52.6
78522;SHT31;67819;51.972;5.678;2023-06-01T16:22:32;17.6;52.8